createdAt,value
2019-04-25T00:00:17.328Z,15.19
2019-04-25T00:01:17.433Z,15.20
2019-04-25T00:02:17.219Z,15.07
2019-04-25T00:03:17.082Z,15.08
2019-04-25T00:04:17.070Z,15.08
2019-04-25T00:05:17.049Z,15.08
2019-04-25T00:06:17.235Z,14.93
2019-04-25T00:07:17.021Z,14.93
2019-04-25T00:08:17.298Z,14.96
2019-04-25T00:09:17.014Z,14.82
2019-04-25T00:10:16.967Z,14.83
2019-04-25T00:11:17.046Z,14.79
2019-04-25T00:12:17.131Z,14.90
2019-04-25T00:13:16.928Z,14.89
2019-04-25T00:14:17.281Z,14.83
2019-04-25T00:15:17.485Z,14.71
2019-04-25T00:16:16.978Z,14.79
2019-04-25T00:17:16.839Z,14.74
2019-04-25T00:18:16.826Z,14.70
2019-04-25T00:19:17.111Z,14.73
2019-04-25T00:20:16.816Z,14.64
2019-04-25T00:21:16.781Z,14.58
2019-04-25T00:22:17.137Z,14.64
2019-04-25T00:23:16.926Z,14.59
2019-04-25T00:24:16.718Z,14.58
2019-04-25T00:25:17.835Z,14.66
2019-04-25T00:26:16.732Z,14.61
2019-04-25T00:27:16.736Z,14.53
2019-04-25T00:28:17.013Z,14.56
2019-04-25T00:29:16.953Z,14.56
2019-04-25T00:31:16.707Z,14.48
2019-04-25T00:32:16.594Z,14.36
2019-04-25T00:35:16.616Z,14.31
2019-04-25T00:36:16.815Z,14.28
2019-04-25T00:37:16.553Z,14.23
2019-04-25T00:38:16.516Z,14.18
2019-04-25T00:39:16.466Z,14.11
2019-04-25T00:40:16.538Z,14.03
2019-04-25T00:41:16.521Z,13.97
2019-04-25T00:42:17.411Z,13.96
2019-04-25T00:43:16.392Z,13.91
2019-04-25T00:44:16.522Z,13.88
2019-04-25T00:45:16.510Z,13.96
2019-04-25T00:46:16.338Z,13.80
2019-04-25T00:47:16.317Z,13.85
2019-04-25T00:48:16.601Z,13.88
2019-04-25T00:49:16.290Z,13.85
2019-04-25T00:50:16.371Z,13.76
2019-04-25T00:51:16.355Z,13.80
2019-04-25T00:52:16.333Z,13.72
2019-04-25T00:53:16.211Z,13.75
2019-04-25T00:54:16.491Z,13.73
2019-04-25T00:55:26.118Z,13.67
2019-04-25T00:56:16.155Z,13.76
2019-04-25T00:57:16.180Z,13.72
2019-04-25T00:58:17.195Z,13.61
2019-04-25T00:59:16.161Z,13.65
2019-04-25T01:00:16.646Z,13.61
2019-04-25T01:01:16.080Z,13.63
2019-04-25T01:02:16.061Z,13.57
2019-04-25T01:03:16.107Z,13.58
2019-04-25T01:04:16.109Z,13.47
2019-04-25T01:06:16.418Z,13.63
2019-04-25T01:07:16.031Z,13.58
2019-04-25T01:09:16.000Z,13.47
2019-04-25T01:10:15.914Z,13.49
2019-04-25T01:11:15.983Z,13.43
2019-04-25T01:12:16.167Z,13.32
2019-04-25T01:13:15.848Z,13.32
2019-04-25T01:14:15.841Z,13.35
2019-04-25T01:15:15.964Z,13.32
2019-04-25T01:16:15.802Z,13.16
2019-04-25T01:17:15.785Z,13.20
2019-04-25T01:18:16.064Z,13.26
2019-04-25T01:19:15.739Z,13.20
2019-04-25T01:20:15.820Z,13.21
2019-04-25T01:21:15.711Z,13.13
2019-04-25T01:22:15.710Z,13.17
2019-04-25T01:23:15.665Z,13.19
2019-04-25T01:24:15.814Z,13.11
2019-04-25T01:25:15.934Z,13.14
2019-04-25T01:27:15.604Z,13.21
2019-04-25T01:29:15.561Z,13.11
2019-04-25T01:31:15.518Z,13.06
2019-04-25T01:32:15.804Z,13.14
2019-04-25T01:33:15.607Z,13.11
2019-04-25T01:34:15.462Z,13.09
2019-04-25T01:35:15.551Z,13.16
2019-04-25T01:36:15.460Z,13.11
2019-04-25T01:37:15.605Z,13.08
2019-04-25T01:38:15.388Z,13.08
2019-04-25T01:39:15.678Z,13.09
2019-04-25T01:40:15.355Z,13.02
2019-04-25T01:41:15.747Z,13.05
2019-04-25T01:42:15.322Z,13.11
2019-04-25T01:43:15.401Z,13.08
2019-04-25T01:44:15.381Z,13.05
2019-04-25T01:46:15.580Z,12.96
2019-04-25T01:47:15.574Z,13.08
2019-04-25T01:48:15.207Z,13.04
2019-04-25T01:49:15.288Z,13.05
2019-04-25T01:50:15.169Z,12.95
2019-04-25T01:51:15.167Z,12.86
2019-04-25T01:52:15.139Z,12.87
2019-04-25T01:53:15.723Z,12.96
2019-04-25T01:54:15.093Z,12.99
2019-04-25T01:55:15.075Z,12.99
2019-04-25T01:56:15.058Z,12.98
2019-04-25T01:58:15.769Z,12.96
2019-04-25T01:59:15.189Z,12.91
2019-04-25T02:00:15.379Z,12.91
2019-04-25T02:01:14.966Z,12.87
2019-04-25T02:02:15.051Z,12.88
2019-04-25T02:03:15.023Z,12.77
2019-04-25T02:04:14.922Z,12.80
2019-04-25T02:05:14.986Z,12.73
2019-04-25T02:06:14.907Z,12.73
2019-04-25T02:07:15.453Z,12.71
2019-04-25T02:08:14.930Z,12.72
2019-04-25T02:09:14.910Z,12.73
2019-04-25T02:10:14.790Z,12.71
2019-04-25T02:11:14.793Z,12.66
2019-04-25T02:12:15.514Z,12.65
2019-04-25T02:13:15.133Z,12.66
2019-04-25T02:14:14.720Z,12.61
2019-04-25T02:15:14.797Z,12.61
2019-04-25T02:16:14.685Z,12.55
2019-04-25T02:17:14.659Z,12.48
2019-04-25T02:18:14.746Z,12.54
2019-04-25T02:19:14.928Z,12.48
2019-04-25T02:20:14.614Z,12.43
2019-04-25T02:21:14.695Z,12.46
2019-04-25T02:22:14.660Z,12.47
2019-04-25T02:23:14.547Z,12.46
2019-04-25T02:24:14.535Z,12.46
2019-04-25T02:25:14.818Z,12.32
2019-04-25T02:27:14.571Z,12.29
2019-04-25T02:28:15.893Z,12.33
2019-04-25T02:29:14.639Z,12.18
2019-04-25T02:30:15.541Z,12.17
2019-04-25T02:31:18.134Z,12.21
2019-04-25T02:32:14.850Z,12.21
2019-04-25T02:33:14.381Z,12.13
2019-04-25T02:34:17.774Z,12.11
2019-04-25T02:36:15.102Z,12.00
2019-04-25T02:37:14.812Z,12.03
2019-04-25T02:38:16.773Z,12.00
2019-04-25T02:39:14.849Z,11.95
2019-04-25T02:41:14.973Z,11.89
2019-04-25T02:42:16.715Z,11.87
2019-04-25T02:43:14.475Z,11.76
2019-04-25T02:44:14.650Z,11.82
2019-04-25T02:45:16.544Z,11.69
2019-04-25T02:46:15.123Z,11.71
2019-04-25T02:47:14.804Z,11.73
2019-04-25T02:48:14.288Z,11.69
2019-04-25T02:49:28.920Z,11.59
2019-04-25T02:51:14.605Z,11.56
2019-04-25T02:52:17.664Z,11.51
2019-04-25T02:54:14.138Z,11.46
2019-04-25T02:55:28.115Z,11.31
2019-04-25T02:56:30.390Z,11.33
2019-04-25T02:57:14.740Z,11.38
2019-04-25T02:58:14.186Z,11.28
2019-04-25T02:59:15.045Z,11.25
2019-04-25T03:00:14.937Z,11.19
2019-04-25T03:01:19.540Z,11.18
2019-04-25T03:02:15.381Z,11.20
2019-04-25T03:04:14.564Z,11.08
2019-04-25T03:05:14.439Z,11.08
2019-04-25T03:06:14.952Z,11.20
2019-04-25T03:07:16.859Z,11.15
2019-04-25T03:08:14.353Z,11.12
2019-04-25T03:09:15.382Z,11.05
2019-04-25T03:11:14.953Z,10.95
2019-04-25T03:12:26.765Z,10.98
2019-04-25T03:13:14.796Z,10.90
2019-04-25T03:14:14.733Z,10.97
2019-04-25T03:15:14.460Z,10.83
2019-04-25T03:16:14.122Z,10.90
2019-04-25T03:17:14.396Z,10.94
2019-04-25T03:18:15.254Z,10.93
2019-04-25T03:19:14.151Z,10.95
2019-04-25T03:21:16.973Z,10.82
2019-04-25T03:22:15.081Z,10.90
2019-04-25T03:24:16.659Z,10.73
2019-04-25T03:25:17.075Z,10.79
2019-04-25T03:26:13.619Z,10.75
2019-04-25T03:27:14.243Z,10.72
2019-04-25T03:28:15.515Z,10.70
2019-04-25T03:29:13.747Z,10.61
2019-04-25T03:30:17.667Z,10.68
2019-04-25T03:31:21.138Z,10.55
2019-04-25T03:32:18.743Z,10.48
2019-04-25T03:33:18.955Z,10.48
2019-04-25T03:34:17.192Z,10.46
2019-04-25T03:36:16.661Z,10.52
2019-04-25T03:37:13.733Z,10.58
2019-04-25T03:38:14.495Z,10.67
2019-04-25T03:40:14.004Z,10.68
2019-04-25T03:41:14.652Z,10.61
2019-04-25T03:42:14.085Z,10.58
2019-04-25T03:43:14.854Z,10.48
2019-04-25T03:44:13.934Z,10.55
2019-04-25T03:45:13.987Z,10.52
2019-04-25T03:46:14.268Z,10.42
2019-04-25T03:47:13.524Z,10.42
2019-04-25T03:50:13.945Z,10.34
2019-04-25T03:51:15.340Z,10.31
2019-04-25T03:52:15.833Z,10.43
2019-04-25T03:53:13.959Z,10.36
2019-04-25T03:54:14.186Z,10.27
2019-04-25T03:55:14.420Z,10.31
2019-04-25T03:56:14.512Z,10.41
2019-04-25T03:57:14.484Z,10.43
2019-04-25T03:59:14.687Z,10.42
2019-04-25T04:00:14.503Z,10.45
2019-04-25T04:01:13.833Z,10.42
2019-04-25T04:02:13.478Z,10.35
2019-04-25T04:03:14.929Z,10.31
2019-04-25T04:04:13.738Z,10.38
2019-04-25T04:05:13.907Z,10.34
2019-04-25T04:06:14.246Z,10.28
2019-04-25T04:07:14.320Z,10.27
2019-04-25T04:08:14.768Z,10.36
2019-04-25T04:09:14.239Z,10.36
2019-04-25T04:10:14.181Z,10.38
2019-04-25T04:11:14.179Z,10.35
2019-04-25T04:12:12.524Z,10.39
2019-04-25T04:13:14.195Z,10.31
2019-04-25T04:14:14.480Z,10.43
2019-04-25T04:16:14.302Z,10.43
2019-04-25T04:17:14.436Z,10.49
2019-04-25T04:18:14.461Z,10.49
2019-04-25T04:19:13.134Z,10.45
2019-04-25T04:20:13.872Z,10.48
2019-04-25T04:21:13.277Z,10.52
2019-04-25T04:22:12.228Z,10.45
2019-04-25T04:24:13.831Z,10.48
2019-04-25T04:25:13.648Z,10.49
2019-04-25T04:26:13.656Z,10.55
2019-04-25T04:27:12.321Z,10.54
2019-04-25T04:28:14.057Z,10.55
2019-04-25T04:29:13.804Z,10.57
2019-04-25T04:31:12.591Z,10.60
2019-04-25T04:32:12.587Z,10.61
2019-04-25T04:33:25.068Z,10.60
2019-04-25T04:34:14.323Z,10.68
2019-04-25T04:35:14.619Z,10.68
2019-04-25T04:36:11.948Z,10.68
2019-04-25T04:37:13.947Z,10.82
2019-04-25T04:38:11.912Z,10.76
2019-04-25T04:39:13.505Z,10.82
2019-04-25T04:40:11.925Z,10.72
2019-04-25T04:41:11.847Z,10.80
2019-04-25T04:42:13.723Z,10.85
2019-04-25T04:43:11.803Z,10.75
2019-04-25T04:44:11.909Z,10.87
2019-04-25T04:45:12.427Z,10.79
2019-04-25T04:46:12.103Z,10.82
2019-04-25T04:47:12.120Z,10.90
2019-04-25T04:48:14.092Z,10.91
2019-04-25T04:49:12.776Z,10.94
2019-04-25T04:51:13.050Z,11.04
2019-04-25T04:52:12.560Z,10.98
2019-04-25T04:53:13.209Z,11.05
2019-04-25T04:54:13.527Z,11.04
2019-04-25T04:56:12.080Z,11.01
2019-04-25T04:57:23.457Z,11.16
2019-04-25T04:58:12.613Z,11.13
2019-04-25T04:59:12.353Z,11.15
2019-04-25T05:01:12.478Z,11.20
2019-04-25T05:02:12.266Z,11.19
2019-04-25T05:03:12.594Z,11.20
2019-04-25T05:04:11.385Z,11.18
2019-04-25T05:05:12.038Z,11.30
2019-04-25T05:06:11.482Z,11.31
2019-04-25T05:07:11.323Z,11.31
2019-04-25T05:08:11.311Z,11.38
2019-04-25T05:09:12.553Z,11.41
2019-04-25T05:10:11.428Z,11.36
2019-04-25T05:12:11.575Z,11.41
2019-04-25T05:13:11.960Z,11.51
2019-04-25T05:14:11.861Z,11.56
2019-04-25T05:15:12.454Z,11.56
2019-04-25T05:17:11.370Z,11.64
2019-04-25T05:19:11.691Z,11.67
2019-04-25T05:20:11.991Z,11.70
2019-04-25T05:21:11.868Z,11.74
2019-04-25T05:22:12.998Z,11.64
2019-04-25T05:23:11.031Z,11.66
2019-04-25T05:24:11.089Z,11.79
2019-04-25T05:25:11.026Z,11.87
2019-04-25T05:26:10.949Z,11.77
2019-04-25T05:27:10.931Z,11.87
2019-04-25T05:28:11.083Z,11.85
2019-04-25T05:29:10.907Z,12.00
2019-04-25T05:30:10.886Z,12.00
2019-04-25T05:31:10.856Z,12.11
2019-04-25T05:32:10.946Z,12.00
2019-04-25T05:33:10.816Z,12.04
2019-04-25T05:34:10.891Z,12.04
2019-04-25T05:35:10.782Z,12.08
2019-04-25T05:37:11.031Z,12.25
2019-04-25T05:39:11.484Z,12.26
2019-04-25T05:40:10.926Z,12.30
2019-04-25T05:41:10.666Z,12.30
2019-04-25T05:42:10.643Z,12.46
2019-04-25T05:43:10.702Z,12.46
2019-04-25T05:44:10.644Z,12.50
2019-04-25T05:45:10.920Z,12.48
2019-04-25T05:46:13.231Z,12.50
2019-04-25T05:48:10.859Z,12.59
2019-04-25T05:49:10.533Z,12.71
2019-04-25T05:50:10.488Z,12.72
2019-04-25T05:51:10.459Z,12.77
2019-04-25T05:53:10.741Z,12.90
2019-04-25T05:54:10.418Z,12.98
2019-04-25T05:56:10.420Z,13.08
2019-04-25T05:57:10.522Z,13.16
2019-04-25T05:58:10.376Z,13.21
2019-04-25T05:59:10.321Z,13.21
2019-04-25T06:00:11.596Z,13.30
2019-04-25T06:01:10.339Z,13.39
2019-04-25T06:02:10.294Z,13.40
2019-04-25T06:03:10.270Z,13.49
2019-04-25T06:04:10.390Z,13.45
2019-04-25T06:05:10.268Z,13.46
2019-04-25T06:06:10.469Z,13.54
2019-04-25T06:07:10.506Z,13.60
2019-04-25T06:08:10.311Z,13.61
2019-04-25T06:09:10.183Z,13.55
2019-04-25T06:10:11.121Z,13.55
2019-04-25T06:12:10.863Z,13.60
2019-04-25T06:13:10.136Z,13.63
2019-04-25T06:16:10.301Z,13.78
2019-04-25T06:17:10.027Z,13.76
2019-04-25T06:19:14.021Z,13.90
2019-04-25T06:21:09.926Z,13.94
2019-04-25T06:22:09.884Z,14.03
2019-04-25T06:23:10.465Z,14.09
2019-04-25T06:24:09.973Z,14.19
2019-04-25T06:25:15.565Z,14.28
2019-04-25T06:27:09.793Z,14.37
2019-04-25T06:28:09.781Z,14.48
2019-04-25T06:29:10.054Z,14.44
2019-04-25T06:30:09.916Z,14.59
2019-04-25T06:31:10.385Z,14.56
2019-04-25T06:32:09.704Z,14.64
2019-04-25T06:33:09.723Z,14.64
2019-04-25T06:35:09.973Z,14.77
2019-04-25T06:36:09.706Z,14.82
2019-04-25T06:37:09.847Z,14.85
2019-04-25T06:38:09.630Z,14.92
2019-04-25T06:39:09.619Z,15.01
2019-04-25T06:41:09.933Z,14.96
2019-04-25T06:42:09.535Z,14.99
2019-04-25T06:43:09.827Z,15.08
2019-04-25T06:44:09.492Z,15.11
2019-04-25T06:45:09.593Z,15.17
2019-04-25T06:46:09.490Z,15.27
2019-04-25T06:47:09.878Z,15.20
2019-04-25T06:48:09.483Z,15.20
2019-04-25T06:49:09.452Z,15.20
2019-04-25T06:50:09.400Z,15.26
2019-04-25T06:51:09.367Z,15.35
2019-04-25T06:52:09.637Z,15.32
2019-04-25T06:53:09.636Z,15.45
2019-04-25T06:54:09.337Z,15.41
2019-04-25T06:55:09.292Z,15.43
2019-04-25T06:58:12.300Z,15.45
2019-04-25T07:00:09.287Z,15.43
2019-04-25T07:01:09.245Z,15.40
2019-04-25T07:02:09.182Z,15.41
2019-04-25T07:03:09.180Z,15.50
2019-04-25T07:04:09.143Z,15.52
2019-04-25T07:06:09.343Z,15.52
2019-04-25T07:07:12.101Z,15.70
2019-04-25T07:08:09.088Z,15.78
2019-04-25T07:09:09.071Z,15.70
2019-04-25T07:10:09.052Z,15.80
2019-04-25T07:11:09.022Z,15.77
2019-04-25T07:12:09.006Z,15.70
2019-04-25T07:13:09.386Z,15.69
2019-04-25T07:14:08.966Z,15.66
2019-04-25T07:15:08.952Z,15.77
2019-04-25T07:16:08.936Z,15.87
2019-04-25T07:17:08.933Z,15.85
2019-04-25T07:18:08.902Z,15.81
2019-04-25T07:20:09.181Z,15.91
2019-04-25T07:21:08.846Z,16.05
2019-04-25T07:22:09.099Z,16.13
2019-04-25T07:23:08.828Z,16.14
2019-04-25T07:24:08.830Z,16.46
2019-04-25T07:25:08.777Z,16.55
2019-04-25T07:26:08.766Z,16.79
2019-04-25T07:27:08.766Z,16.92
2019-04-25T07:28:08.746Z,17.06
2019-04-25T07:29:08.709Z,17.09
2019-04-25T07:30:08.734Z,17.35
2019-04-25T07:31:08.701Z,17.46
2019-04-25T07:32:08.672Z,17.63
2019-04-25T07:34:09.251Z,18.09
2019-04-25T07:35:08.635Z,18.12
2019-04-25T07:36:08.735Z,18.13
2019-04-25T07:37:08.595Z,18.34
2019-04-25T07:38:08.636Z,18.41
2019-04-25T07:40:08.609Z,18.93
2019-04-25T07:41:08.538Z,19.13
2019-04-25T07:42:08.516Z,19.39
2019-04-25T07:43:08.555Z,19.57
2019-04-25T07:44:08.475Z,19.53
2019-04-25T07:45:08.696Z,19.09
2019-04-25T07:46:08.471Z,19.04
2019-04-25T07:48:08.414Z,18.74
2019-04-25T07:49:08.740Z,18.67
2019-04-25T07:50:08.413Z,18.71
2019-04-25T07:51:08.473Z,18.71
2019-04-25T07:52:08.361Z,18.71
2019-04-25T07:53:08.348Z,18.88
2019-04-25T07:54:08.479Z,19.16
2019-04-25T07:56:08.316Z,19.67
2019-04-25T07:57:08.293Z,19.79
2019-04-25T07:58:08.591Z,19.60
2019-04-25T07:59:08.280Z,20.02
2019-04-25T08:00:08.258Z,20.34
2019-04-25T08:01:08.268Z,20.67
2019-04-25T08:02:08.242Z,20.82
2019-04-25T08:03:08.225Z,21.22
2019-04-25T08:04:08.202Z,20.79
2019-04-25T08:05:08.341Z,21.01
2019-04-25T08:06:08.175Z,21.05
2019-04-25T08:07:08.623Z,21.20
2019-04-25T08:08:08.338Z,21.44
2019-04-25T08:09:08.134Z,21.45
2019-04-25T08:10:08.434Z,21.38
2019-04-25T08:11:08.191Z,21.38
2019-04-25T08:12:08.109Z,21.29
2019-04-25T08:13:08.292Z,21.40
2019-04-25T08:14:08.123Z,21.16
2019-04-25T08:15:08.134Z,21.20
2019-04-25T08:16:08.354Z,21.28
2019-04-25T08:17:08.315Z,21.14
2019-04-25T08:18:08.100Z,20.98
2019-04-25T08:20:08.128Z,20.71
2019-04-25T08:22:08.072Z,21.74
2019-04-25T08:23:08.036Z,21.97
2019-04-25T08:24:07.966Z,21.84
2019-04-25T08:25:07.959Z,21.67
2019-04-25T08:26:07.956Z,21.55
2019-04-25T08:27:07.931Z,21.74
2019-04-25T08:28:08.026Z,21.78
2019-04-25T08:30:09.109Z,21.53
2019-04-25T08:31:07.940Z,21.28
2019-04-25T08:32:07.928Z,21.50
2019-04-25T08:33:07.868Z,22.04
2019-04-25T08:34:07.870Z,22.00
2019-04-25T08:35:07.854Z,22.30
2019-04-25T08:36:09.255Z,22.28
2019-04-25T08:38:07.919Z,21.41
2019-04-25T08:39:07.820Z,21.51
2019-04-25T08:40:07.833Z,21.18
2019-04-25T08:41:07.785Z,21.11
2019-04-25T08:42:07.776Z,21.10
2019-04-25T08:43:08.169Z,21.30
2019-04-25T08:44:07.747Z,21.53
2019-04-25T08:45:07.741Z,21.71
2019-04-25T08:47:07.768Z,21.60
2019-04-25T08:48:08.051Z,22.52
2019-04-25T08:49:07.717Z,22.22
2019-04-25T08:50:08.046Z,21.75
2019-04-25T08:51:07.684Z,21.60
2019-04-25T08:52:07.679Z,21.81
2019-04-25T08:53:07.662Z,21.80
2019-04-25T08:54:07.654Z,22.19
2019-04-25T08:55:07.666Z,22.00
2019-04-25T08:56:07.636Z,21.82
2019-04-25T08:57:07.934Z,21.71
2019-04-25T08:58:07.776Z,22.36
2019-04-25T09:00:08.288Z,22.71
2019-04-25T09:01:08.038Z,22.88
2019-04-25T09:02:08.327Z,23.03
2019-04-25T09:03:07.672Z,22.68
2019-04-25T09:04:08.108Z,22.31
2019-04-25T09:05:08.799Z,22.52
2019-04-25T09:07:08.295Z,22.30
2019-04-25T09:08:08.366Z,22.88
2019-04-25T09:09:08.374Z,23.14
2019-04-25T09:10:08.362Z,22.98
2019-04-25T09:11:09.145Z,23.33
2019-04-25T09:12:08.336Z,23.66
2019-04-25T09:13:08.521Z,23.59
2019-04-25T09:14:08.813Z,24.03
2019-04-25T09:15:08.332Z,24.28
2019-04-25T09:16:08.422Z,24.18
2019-04-25T09:17:08.415Z,23.85
2019-04-25T09:18:08.920Z,23.59
2019-04-25T09:19:08.281Z,23.55
2019-04-25T09:20:07.618Z,23.97
2019-04-25T09:21:07.741Z,24.29
2019-04-25T09:22:08.655Z,24.10
2019-04-25T09:23:07.778Z,23.41
2019-04-25T09:24:08.238Z,22.86
2019-04-25T09:25:08.549Z,22.93
2019-04-25T09:26:07.732Z,23.01
2019-04-25T09:27:07.946Z,23.08
2019-04-25T09:28:08.093Z,23.61
2019-04-25T09:29:16.827Z,24.23
2019-04-25T09:30:08.081Z,23.88
2019-04-25T09:31:07.926Z,23.85
2019-04-25T09:32:08.301Z,23.82
2019-04-25T09:33:07.922Z,23.76
2019-04-25T09:34:07.889Z,24.38
2019-04-25T09:35:08.445Z,24.62
2019-04-25T09:36:08.070Z,24.29
2019-04-25T09:37:07.854Z,23.52
2019-04-25T09:38:08.336Z,23.45
2019-04-25T09:39:07.694Z,23.34
2019-04-25T09:40:07.953Z,23.33
2019-04-25T09:41:08.266Z,23.29
2019-04-25T09:42:08.064Z,23.64
2019-04-25T09:43:08.068Z,24.06
2019-04-25T09:44:08.165Z,24.25
2019-04-25T09:45:08.111Z,23.79
2019-04-25T09:47:08.418Z,23.81
2019-04-25T09:48:07.731Z,24.07
2019-04-25T09:49:07.873Z,24.31
2019-04-25T09:50:08.080Z,24.13
2019-04-25T09:51:08.096Z,24.28
2019-04-25T09:52:07.783Z,24.58
2019-04-25T09:53:20.772Z,24.81
2019-04-25T09:54:07.842Z,24.19
2019-04-25T09:55:07.691Z,23.88
2019-04-25T09:56:08.492Z,24.00
2019-04-25T09:58:07.351Z,24.56
2019-04-25T09:59:07.907Z,25.16
2019-04-25T10:00:08.044Z,25.31
2019-04-25T10:01:07.676Z,25.09
2019-04-25T10:02:07.599Z,25.14
2019-04-25T10:03:07.793Z,24.60
2019-04-25T10:04:07.542Z,24.58
2019-04-25T10:05:07.920Z,24.84
2019-04-25T10:06:07.599Z,25.09
2019-04-25T10:07:07.942Z,24.93
2019-04-25T10:08:07.736Z,25.04
2019-04-25T10:09:07.183Z,25.48
2019-04-25T10:10:07.557Z,25.82
2019-04-25T10:11:07.124Z,25.74
2019-04-25T10:12:07.163Z,25.92
2019-04-25T10:13:07.902Z,26.00
2019-04-25T10:14:07.757Z,25.48
2019-04-25T10:15:07.765Z,25.58
2019-04-25T10:16:07.947Z,25.43
2019-04-25T10:17:08.408Z,25.67
2019-04-25T10:18:07.682Z,25.01
2019-04-25T10:19:07.837Z,24.47
2019-04-25T10:20:08.245Z,24.34
2019-04-25T10:21:07.585Z,24.56
2019-04-25T10:22:07.802Z,24.66
2019-04-25T10:23:07.344Z,24.55
2019-04-25T10:24:07.642Z,24.81
2019-04-25T10:25:07.545Z,24.82
2019-04-25T10:26:09.576Z,24.40
2019-04-25T10:27:07.731Z,24.90
2019-04-25T10:28:07.771Z,25.15
2019-04-25T10:29:07.870Z,25.45
2019-04-25T10:30:16.954Z,25.59
2019-04-25T10:31:07.814Z,25.52
2019-04-25T10:32:07.627Z,25.40
2019-04-25T10:33:07.588Z,24.96
2019-04-25T10:34:07.752Z,24.82
2019-04-25T10:35:07.161Z,24.48
2019-04-25T10:36:07.039Z,24.62
2019-04-25T10:37:07.320Z,24.81
2019-04-25T10:38:07.033Z,25.11
2019-04-25T10:39:10.776Z,25.01
2019-04-25T10:40:07.124Z,24.99
2019-04-25T10:41:07.063Z,25.21
2019-04-25T10:42:07.173Z,25.22
2019-04-25T10:43:07.053Z,25.56
2019-04-25T10:44:07.048Z,25.19
2019-04-25T10:45:20.235Z,25.12
2019-04-25T10:46:07.028Z,25.43
2019-04-25T10:47:07.701Z,25.81
2019-04-25T10:48:07.129Z,25.34
2019-04-25T10:49:07.074Z,25.53
2019-04-25T10:50:07.013Z,25.41
2019-04-25T10:51:07.071Z,25.53
2019-04-25T10:52:07.053Z,25.37
2019-04-25T10:53:06.957Z,25.77
2019-04-25T10:54:07.184Z,26.00
2019-04-25T10:55:06.956Z,25.33
2019-04-25T10:56:06.964Z,24.75
2019-04-25T10:57:06.937Z,25.23
2019-04-25T10:58:07.244Z,25.56
2019-04-25T10:59:08.262Z,25.59
2019-04-25T11:01:07.366Z,25.58
2019-04-25T11:02:06.931Z,25.81
2019-04-25T11:04:07.023Z,25.89
2019-04-25T11:05:07.215Z,26.05
2019-04-25T11:06:06.955Z,25.89
2019-04-25T11:07:07.182Z,25.21
2019-04-25T11:08:06.902Z,25.64
2019-04-25T11:09:06.932Z,25.34
2019-04-25T11:10:06.975Z,25.78
2019-04-25T11:11:07.205Z,25.70
2019-04-25T11:12:06.878Z,25.53
2019-04-25T11:13:06.876Z,25.74
2019-04-25T11:14:07.590Z,25.27
2019-04-25T11:15:07.339Z,25.30
2019-04-25T11:16:06.874Z,25.59
2019-04-25T11:17:07.443Z,26.12
2019-04-25T11:24:07.182Z,26.61
2019-04-25T11:25:06.897Z,27.01
2019-04-25T11:26:06.883Z,26.85
2019-04-25T11:27:07.988Z,27.07
2019-04-25T11:28:07.016Z,27.00
2019-04-25T11:30:10.814Z,27.16
2019-04-25T11:31:06.840Z,26.93
2019-04-25T11:32:06.830Z,27.16
2019-04-25T11:33:06.887Z,26.93
2019-04-25T11:34:06.814Z,26.73
2019-04-25T11:35:06.858Z,26.67
2019-04-25T11:36:07.114Z,26.24
2019-04-25T11:37:06.805Z,25.96
2019-04-25T11:38:06.811Z,26.49
2019-04-25T11:39:06.822Z,26.88
2019-04-25T11:40:06.798Z,26.52
2019-04-25T11:41:06.798Z,26.78
2019-04-25T11:42:07.205Z,26.58
2019-04-25T11:45:06.862Z,27.61
2019-04-25T11:46:06.814Z,28.09
2019-04-25T11:47:08.524Z,27.72
2019-04-25T11:48:07.093Z,27.25
2019-04-25T11:49:06.792Z,27.94
2019-04-25T11:50:06.781Z,27.75
2019-04-25T11:51:06.841Z,27.37
2019-04-25T11:52:07.295Z,27.82
2019-04-25T11:53:06.942Z,27.88
2019-04-25T11:54:07.099Z,27.54
2019-04-25T11:55:06.841Z,26.95
2019-04-25T11:57:06.810Z,28.07
2019-04-25T11:58:06.758Z,28.68
2019-04-25T11:59:06.770Z,28.52
2019-04-25T12:00:06.766Z,28.74
2019-04-25T12:01:07.047Z,28.50
2019-04-25T12:02:06.740Z,28.20
2019-04-25T12:03:06.849Z,27.49
2019-04-25T12:04:06.753Z,27.42
2019-04-25T12:05:06.739Z,27.42
2019-04-25T12:07:08.591Z,26.57
2019-04-25T12:10:06.896Z,26.51
2019-04-25T12:11:06.728Z,27.20
2019-04-25T12:12:06.770Z,27.58
2019-04-25T12:13:06.943Z,28.07
2019-04-25T12:14:07.205Z,28.10
2019-04-25T12:15:06.726Z,28.27
2019-04-25T12:16:06.714Z,27.90
2019-04-25T12:19:06.905Z,27.94
2019-04-25T12:21:07.002Z,27.47
2019-04-25T12:23:10.290Z,27.52
2019-04-25T12:25:06.727Z,27.25
2019-04-25T12:26:06.801Z,27.52
2019-04-25T12:27:07.143Z,27.83
2019-04-25T12:29:06.930Z,27.83
2019-04-25T12:30:06.996Z,28.13
2019-04-25T12:31:07.162Z,28.00
2019-04-25T12:33:18.449Z,28.72
2019-04-25T12:34:06.680Z,28.44
2019-04-25T12:35:06.681Z,28.53
2019-04-25T12:37:07.073Z,27.85
2019-04-25T12:38:06.724Z,28.10
2019-04-25T12:39:07.183Z,27.53
2019-04-25T12:40:06.862Z,27.80
2019-04-25T12:41:06.682Z,27.57
2019-04-25T12:42:06.683Z,27.57
2019-04-25T12:45:06.671Z,28.75
2019-04-25T12:46:06.657Z,29.22
2019-04-25T12:47:06.771Z,28.13
2019-04-25T12:48:06.941Z,27.10
2019-04-25T12:49:06.660Z,27.12
2019-04-25T12:50:06.985Z,27.03
2019-04-25T12:51:06.651Z,26.76
2019-04-25T12:52:07.178Z,27.17
2019-04-25T12:53:07.929Z,27.16
2019-04-25T12:54:06.782Z,27.25
2019-04-25T12:55:06.786Z,26.95
2019-04-25T12:56:06.948Z,26.90
2019-04-25T12:57:06.839Z,27.45
2019-04-25T12:58:06.655Z,27.31
2019-04-25T12:59:06.656Z,27.42
2019-04-25T13:00:06.795Z,28.24
2019-04-25T13:01:06.680Z,29.03
2019-04-25T13:02:06.983Z,28.96
2019-04-25T13:03:07.057Z,29.25
2019-04-25T13:04:06.659Z,28.96
2019-04-25T13:05:07.114Z,28.90
2019-04-25T13:06:06.607Z,29.09
2019-04-25T13:07:06.612Z,28.81
2019-04-25T13:08:06.948Z,28.94
2019-04-25T13:09:07.106Z,29.31
2019-04-25T13:10:06.656Z,29.61
2019-04-25T13:11:08.589Z,29.99
2019-04-25T13:12:06.628Z,30.10
2019-04-25T13:13:06.686Z,30.13
2019-04-25T13:14:06.902Z,30.48
2019-04-25T13:15:06.682Z,30.78
2019-04-25T13:16:06.749Z,30.55
2019-04-25T13:17:08.408Z,30.45
2019-04-25T13:18:06.606Z,30.49
2019-04-25T13:19:16.765Z,30.39
2019-04-25T13:20:08.110Z,30.62
2019-04-25T13:21:07.721Z,30.82
2019-04-25T13:22:08.047Z,30.37
2019-04-25T13:23:07.778Z,29.59
2019-04-25T13:25:06.925Z,29.02
2019-04-25T13:26:07.196Z,28.62
2019-04-25T13:27:07.884Z,28.98
2019-04-25T13:28:08.314Z,28.80
2019-04-25T13:29:06.815Z,28.31
2019-04-25T13:30:07.734Z,28.00
2019-04-25T13:31:12.123Z,28.40
2019-04-25T13:32:07.581Z,28.50
2019-04-25T13:34:07.593Z,28.65
2019-04-25T13:35:07.542Z,28.72
2019-04-25T13:36:06.714Z,28.94
2019-04-25T13:37:06.857Z,28.94
2019-04-25T13:38:08.616Z,28.69
2019-04-25T13:39:07.161Z,28.74
2019-04-25T13:40:06.570Z,29.00
2019-04-25T13:41:06.943Z,29.58
2019-04-25T13:43:06.583Z,29.37
2019-04-25T13:44:07.135Z,29.43
2019-04-25T13:45:06.667Z,29.19
2019-04-25T13:46:06.553Z,28.74
2019-04-25T13:48:06.744Z,28.16
2019-04-25T13:49:06.619Z,27.79
2019-04-25T13:50:06.561Z,27.76
2019-04-25T13:51:06.617Z,28.17
2019-04-25T13:52:06.587Z,28.43
2019-04-25T14:06:06.515Z,29.36
2019-04-25T14:07:06.529Z,29.02
2019-04-25T14:08:06.562Z,28.66
2019-04-25T14:09:06.514Z,29.02
2019-04-25T14:15:06.523Z,29.41
2019-04-25T14:24:19.693Z,30.20
2019-04-25T14:25:06.483Z,30.62
2019-04-25T14:26:06.541Z,30.60
2019-04-25T14:27:06.789Z,30.39
2019-04-25T14:28:06.529Z,30.49
2019-04-25T14:29:06.531Z,30.53
2019-04-25T14:30:06.476Z,30.77
2019-04-25T14:31:06.468Z,30.13
2019-04-25T14:32:06.611Z,29.77
2019-04-25T14:33:06.873Z,29.28
2019-04-25T14:34:06.467Z,29.06
2019-04-25T14:35:06.597Z,29.43
2019-04-25T14:36:06.888Z,29.49
2019-04-25T14:37:06.578Z,29.70
2019-04-25T14:38:06.472Z,29.55
2019-04-25T14:39:06.767Z,29.09
2019-04-25T14:40:06.978Z,28.79
2019-04-25T14:41:06.464Z,29.06
2019-04-25T14:42:06.580Z,29.00
2019-04-25T14:43:06.482Z,29.28
2019-04-25T14:44:06.468Z,29.29
2019-04-25T14:45:06.781Z,29.31
2019-04-25T14:46:06.641Z,29.21
2019-04-25T14:47:06.709Z,29.46
2019-04-25T14:49:06.719Z,30.02
2019-04-25T14:50:06.457Z,30.07
2019-04-25T14:51:07.287Z,29.87
2019-04-25T14:52:06.913Z,29.44